Time;durP1;ratioP1;P1;durP2;ratioP2;P2;SDS_P1;SDS_P2;PMS_P1;PMS_P2;Temp;Humidity;BMP_temperature;BMP_pressure;BME280_temperature;BME280_humidity;BME280_pressure;Samples;Min_cycle;Max_cycle;Signal;HPM_P1;HPM_P2
2021/07/03 00:00:07;;;;;;;6.95;1.85;;;16.20;79.80;;;;;;6093336;23;20006;-68
2021/07/03 00:02:34;;;;;;;7.65;2.42;;;16.20;79.90;;;;;;6093794;23;20371;-67
2021/07/03 00:05:01;;;;;;;4.15;1.38;;;16.20;79.80;;;;;;6093922;23;20324;-67
2021/07/03 00:07:27;;;;;;;4.30;1.00;;;16.20;79.80;;;;;;6094343;23;20006;-68
2021/07/03 00:09:54;;;;;;;5.75;1.45;;;16.20;79.80;;;;;;6094475;23;20011;-67
2021/07/03 00:12:20;;;;;;;6.80;1.48;;;16.20;79.90;;;;;;6093566;23;20006;-67
2021/07/03 00:14:47;;;;;;;5.75;1.70;;;16.20;79.90;;;;;;6094447;23;20014;-67
2021/07/03 00:17:13;;;;;;;6.68;2.05;;;16.20;79.90;;;;;;6092740;23;20395;-67
2021/07/03 00:19:40;;;;;;;6.25;1.48;;;16.20;79.90;;;;;;6092620;23;20006;-67
2021/07/03 00:22:07;;;;;;;3.45;1.20;;;16.20;79.90;;;;;;6093871;23;19999;-67
2021/07/03 00:24:33;;;;;;;3.80;1.50;;;16.20;79.90;;;;;;6094675;23;20007;-67
2021/07/03 00:27:00;;;;;;;4.85;1.20;;;16.20;79.90;;;;;;6093838;23;20006;-68
2021/07/03 00:29:27;;;;;;;3.45;1.38;;;16.20;80.00;;;;;;6093522;23;20009;-67
2021/07/03 00:31:53;;;;;;;6.07;1.85;;;16.20;79.90;;;;;;6094503;23;20009;-67
2021/07/03 00:34:20;;;;;;;6.97;1.63;;;16.20;80.00;;;;;;6092860;23;20014;-67
2021/07/03 00:36:46;;;;;;;6.90;1.42;;;16.20;80.00;;;;;;6094501;23;20002;-67
2021/07/03 00:39:12;;;;;;;5.70;1.52;;;16.20;80.00;;;;;;6092760;23;20013;-67
2021/07/03 00:41:39;;;;;;;7.43;2.00;;;16.20;80.10;;;;;;6094294;23;20021;-68
2021/07/03 00:44:06;;;;;;;7.22;2.28;;;16.20;80.10;;;;;;6093699;23;20006;-67
2021/07/03 00:46:32;;;;;;;5.55;1.50;;;16.20;80.20;;;;;;6093784;23;20050;-67
2021/07/03 00:48:58;;;;;;;2.25;1.20;;;16.20;80.30;;;;;;6093509;23;20017;-67
2021/07/03 00:51:25;;;;;;;8.25;1.50;;;16.20;80.40;;;;;;6091934;23;20009;-67
2021/07/03 00:53:52;;;;;;;6.53;1.88;;;16.10;80.30;;;;;;6094236;23;20057;-67
2021/07/03 00:56:18;;;;;;;5.28;1.40;;;16.10;80.40;;;;;;6092654;23;20018;-67
2021/07/03 00:58:45;;;;;;;8.07;2.55;;;16.10;80.40;;;;;;6094081;23;20084;-67
2021/07/03 01:01:11;;;;;;;3.88;1.27;;;16.10;80.40;;;;;;6093226;23;20485;-67
2021/07/03 01:03:38;;;;;;;5.18;1.45;;;16.10;80.50;;;;;;6093811;23;20573;-67
2021/07/03 01:06:04;;;;;;;5.68;1.40;;;16.10;80.50;;;;;;6093800;23;20010;-67
2021/07/03 01:08:31;;;;;;;4.25;1.50;;;16.10;80.60;;;;;;6093149;23;20071;-67
2021/07/03 01:10:58;;;;;;;3.63;1.52;;;16.10;80.60;;;;;;6093809;23;20011;-67
2021/07/03 01:13:31;;;;;;;10.48;2.17;;;16.10;80.60;;;;;;6092847;23;20025;-67
2021/07/03 01:15:58;;;;;;;6.38;1.55;;;16.10;80.70;;;;;;6093807;23;20033;-67
2021/07/03 01:18:24;;;;;;;3.40;1.42;;;16.10;80.80;;;;;;6092975;23;20545;-67
2021/07/03 01:20:54;;;;;;;3.67;1.60;;;16.10;80.80;;;;;;6093737;23;20002;-67
2021/07/03 01:23:22;;;;;;;6.80;1.30;;;16.10;80.90;;;;;;6092434;23;20498;-67
2021/07/03 01:25:54;;;;;;;6.00;2.28;;;16.10;80.90;;;;;;6093108;23;20366;-67
2021/07/03 01:28:20;;;;;;;5.93;1.50;;;16.10;81.00;;;;;;6093719;23;20006;-67
2021/07/03 01:30:47;;;;;;;5.47;3.00;;;16.10;81.00;;;;;;6092400;23;20011;-67
2021/07/03 01:33:13;;;;;;;6.40;1.98;;;16.10;81.00;;;;;;6094123;23;20006;-67
2021/07/03 01:35:41;;;;;;;2.65;1.38;;;16.10;81.10;;;;;;6092705;23;20025;-67
2021/07/03 01:38:08;;;;;;;4.80;2.05;;;16.10;81.10;;;;;;6093911;23;20006;-67
2021/07/03 01:40:34;;;;;;;6.28;1.55;;;16.10;81.20;;;;;;6092958;23;20006;-68
2021/07/03 01:43:01;;;;;;;4.82;1.30;;;16.10;81.20;;;;;;6093001;23;19999;-67
2021/07/03 01:45:27;;;;;;;7.07;1.60;;;16.10;81.30;;;;;;6093606;23;20029;-67
2021/07/03 01:47:54;;;;;;;4.50;1.58;;;16.10;81.40;;;;;;6092646;23;20030;-67
2021/07/03 01:50:20;;;;;;;4.22;1.38;;;16.10;81.50;;;;;;6093681;23;20014;-67
2021/07/03 01:52:50;;;;;;;3.63;1.23;;;16.00;81.40;;;;;;6092836;23;19998;-67
2021/07/03 01:55:17;;;;;;;10.95;2.30;;;16.10;81.50;;;;;;6093624;23;20019;-66
2021/07/03 01:57:43;;;;;;;2.97;1.27;;;16.10;81.50;;;;;;6093204;23;20508;-67
2021/07/03 02:00:12;;;;;;;4.85;1.73;;;16.10;81.60;;;;;;6091625;23;20017;-67
2021/07/03 02:02:38;;;;;;;4.90;1.73;;;16.10;82.30;;;;;;6091664;23;20384;-67
2021/07/03 02:05:06;;;;;;;7.07;1.80;;;16.10;81.80;;;;;;6092637;23;20006;-67
2021/07/03 02:07:32;;;;;;;5.00;1.58;;;16.00;81.90;;;;;;6093553;23;20455;-69
2021/07/03 02:10:00;;;;;;;6.25;1.15;;;16.10;82.10;;;;;;6090506;23;20076;-66
2021/07/03 02:12:27;;;;;;;6.20;2.50;;;16.10;82.20;;;;;;6093644;23;20068;-66
2021/07/03 02:14:53;;;;;;;5.43;1.65;;;16.00;82.20;;;;;;6092547;23;20038;-66
2021/07/03 02:17:20;;;;;;;5.13;1.60;;;16.00;82.40;;;;;;6093397;23;20029;-66
2021/07/03 02:19:46;;;;;;;5.78;2.00;;;16.10;82.50;;;;;;6093592;23;20006;-66
2021/07/03 02:22:13;;;;;;;5.43;1.55;;;16.00;82.50;;;;;;6092768;23;20415;-65
2021/07/03 02:24:39;;;;;;;7.63;3.63;;;16.00;82.60;;;;;;6093455;23;20653;-66
2021/07/03 02:27:06;;;;;;;6.80;1.83;;;16.00;82.70;;;;;;6091142;23;20331;-67
2021/07/03 02:29:36;;;;;;;6.93;1.55;;;16.00;82.80;;;;;;6093872;23;20024;-69
2021/07/03 02:32:03;;;;;;;2.80;1.40;;;16.00;82.90;;;;;;6092448;23;20002;-70
2021/07/03 02:34:29;;;;;;;3.83;1.70;;;16.00;83.00;;;;;;6091713;23;20320;-67
2021/07/03 02:36:56;;;;;;;5.35;1.92;;;16.00;83.10;;;;;;6093329;23;20367;-67
2021/07/03 02:39:23;;;;;;;5.63;1.20;;;16.00;83.10;;;;;;6092789;23;19999;-67
2021/07/03 02:41:49;;;;;;;7.28;1.77;;;16.00;83.80;;;;;;6093684;23;20012;-67
2021/07/03 02:44:16;;;;;;;5.57;1.58;;;16.00;83.10;;;;;;6092513;23;20450;-67
2021/07/03 02:46:43;;;;;;;9.38;1.73;;;16.00;83.20;;;;;;6093476;23;20327;-66
2021/07/03 02:49:09;;;;;;;4.40;1.55;;;16.00;83.10;;;;;;6092171;23;19999;-67
2021/07/03 02:51:36;;;;;;;2.30;0.88;;;16.00;83.10;;;;;;6093411;23;20041;-67
2021/07/03 02:54:02;;;;;;;2.17;1.42;;;16.00;83.10;;;;;;6092590;23;20065;-67
2021/07/03 02:56:29;;;;;;;2.88;1.55;;;16.00;83.20;;;;;;6093238;23;20010;-67
2021/07/03 02:58:55;;;;;;;4.95;2.08;;;16.00;83.20;;;;;;6093344;23;19999;-67
2021/07/03 03:01:22;;;;;;;3.80;1.77;;;16.00;83.20;;;;;;6092010;23;20014;-67
2021/07/03 03:03:48;;;;;;;2.22;0.90;;;16.00;83.20;;;;;;6094302;23;20006;-67
2021/07/03 03:06:15;;;;;;;2.53;1.08;;;15.90;83.20;;;;;;6093485;23;19999;-67
2021/07/03 03:08:41;;;;;;;7.57;2.53;;;16.00;83.20;;;;;;6094457;23;20002;-67
2021/07/03 03:11:08;;;;;;;5.47;1.33;;;15.90;83.20;;;;;;6094066;23;20061;-67
2021/07/03 03:13:34;;;;;;;3.17;0.75;;;15.90;83.30;;;;;;6094949;23;20093;-67
2021/07/03 03:16:01;;;;;;;2.05;0.70;;;16.00;83.50;;;;;;6094801;23;20010;-67
2021/07/03 03:18:27;;;;;;;2.58;0.90;;;15.90;83.50;;;;;;6094191;23;20026;-67
2021/07/03 03:20:54;;;;;;;1.92;0.73;;;15.90;83.50;;;;;;6095290;23;20034;-67
2021/07/03 03:23:20;;;;;;;1.48;0.70;;;15.90;83.50;;;;;;6093557;23;20055;-66
2021/07/03 03:25:47;;;;;;;2.40;0.70;;;15.90;83.60;;;;;;6094917;23;20009;-66
2021/07/03 03:28:14;;;;;;;3.80;0.75;;;15.90;83.60;;;;;;6094124;23;20331;-67
2021/07/03 03:30:40;;;;;;;3.35;1.02;;;15.90;83.70;;;;;;6095227;23;20081;-67
2021/07/03 03:33:07;;;;;;;1.85;0.52;;;15.90;83.80;;;;;;6094388;23;20007;-67
2021/07/03 03:35:33;;;;;;;1.38;0.60;;;15.90;83.80;;;;;;6094054;23;20018;-66
2021/07/03 03:38:00;;;;;;;4.43;1.67;;;15.90;83.80;;;;;;6094851;23;20007;-74
2021/07/03 03:40:27;;;;;;;1.80;0.60;;;15.90;83.90;;;;;;6093524;23;19991;-66
2021/07/03 03:42:54;;;;;;;2.90;0.80;;;15.90;84.00;;;;;;6095264;23;20002;-71
2021/07/03 03:45:22;;;;;;;1.67;1.58;;;15.90;84.00;;;;;;6093462;23;20457;-66
2021/07/03 03:47:49;;;;;;;2.67;1.00;;;15.90;84.10;;;;;;6094693;23;20002;-66
2021/07/03 03:50:15;;;;;;;3.13;1.27;;;15.90;84.10;;;;;;6094201;23;20003;-67
2021/07/03 03:52:42;;;;;;;2.33;1.40;;;15.90;84.10;;;;;;6094296;23;20094;-68
2021/07/03 03:55:09;;;;;;;2.83;1.25;;;15.90;84.20;;;;;;6094254;23;20501;-66
2021/07/03 03:57:35;;;;;;;1.80;1.45;;;15.90;84.20;;;;;;6093652;23;19998;-65
2021/07/03 04:00:03;;;;;;;3.42;1.42;;;15.90;84.10;;;;;;6094552;23;20006;-66
2021/07/03 04:02:29;;;;;;;2.17;1.20;;;15.90;84.10;;;;;;6092325;23;19999;-66
2021/07/03 04:04:56;;;;;;;4.13;1.67;;;15.90;84.30;;;;;;6093939;23;20009;-65
2021/07/03 04:07:23;;;;;;;3.42;1.30;;;15.90;84.30;;;;;;6093290;23;20003;-66
2021/07/03 04:09:49;;;;;;;2.88;1.60;;;15.90;84.40;;;;;;6094303;23;20050;-66
2021/07/03 04:12:16;;;;;;;5.00;1.10;;;15.90;84.50;;;;;;6094135;23;20005;-66
2021/07/03 04:14:43;;;;;;;2.30;0.60;;;15.90;84.50;;;;;;6093135;23;20020;-67
2021/07/03 04:17:09;;;;;;;1.08;0.80;;;15.90;84.50;;;;;;6094596;23;19999;-66
2021/07/03 04:19:36;;;;;;;1.58;0.60;;;15.90;84.50;;;;;;6093296;23;20010;-67
2021/07/03 04:22:02;;;;;;;3.60;1.35;;;15.90;84.50;;;;;;6094807;23;19999;-67
2021/07/03 04:24:29;;;;;;;2.20;0.77;;;15.90;84.50;;;;;;6093132;23;20010;-66
2021/07/03 04:26:55;;;;;;;1.52;0.80;;;15.90;84.50;;;;;;6094790;23;19998;-66
2021/07/03 04:29:22;;;;;;;1.70;0.80;;;15.90;84.50;;;;;;6093697;23;20049;-67
2021/07/03 04:31:49;;;;;;;3.38;0.70;;;15.90;84.60;;;;;;6093865;23;20037;-67
2021/07/03 04:34:15;;;;;;;1.08;0.60;;;15.90;84.70;;;;;;6094204;23;20077;-68
2021/07/03 04:36:42;;;;;;;1.42;0.68;;;15.90;84.70;;;;;;6092954;23;20010;-66
2021/07/03 04:39:08;;;;;;;1.05;0.70;;;15.90;84.70;;;;;;6096304;23;20013;-68
2021/07/03 04:41:37;;;;;;;1.55;0.73;;;15.90;84.70;;;;;;6093228;23;20013;-67
2021/07/03 04:44:05;;;;;;;2.13;1.17;;;15.90;84.80;;;;;;6092678;23;20029;-65
2021/07/03 04:46:33;;;;;;;1.42;0.68;;;15.90;84.80;;;;;;6093300;23;20002;-71
2021/07/03 04:49:00;;;;;;;2.30;1.15;;;15.90;84.90;;;;;;6094129;23;19999;-66
2021/07/03 04:51:26;;;;;;;2.08;0.80;;;15.90;85.00;;;;;;6093881;23;20006;-65
2021/07/03 04:53:53;;;;;;;1.50;1.10;;;15.90;85.10;;;;;;6093018;23;20003;-67
2021/07/03 04:56:19;;;;;;;3.47;1.92;;;15.90;85.00;;;;;;6093944;23;20014;-66
2021/07/03 04:58:46;;;;;;;3.15;1.30;;;15.90;85.00;;;;;;6092854;23;20041;-65
2021/07/03 05:01:13;;;;;;;2.17;1.27;;;15.90;85.00;;;;;;6093956;23;20431;-66
2021/07/03 05:03:39;;;;;;;1.73;1.23;;;15.90;85.00;;;;;;6092937;23;20022;-66
2021/07/03 05:06:06;;;;;;;3.97;1.63;;;15.90;85.10;;;;;;6094224;23;20589;-66
2021/07/03 05:08:32;;;;;;;3.13;1.35;;;15.90;85.10;;;;;;6093346;23;20159;-65
2021/07/03 05:10:59;;;;;;;3.08;1.58;;;15.80;85.00;;;;;;6093133;23;20006;-66
2021/07/03 05:13:25;;;;;;;2.85;1.73;;;15.80;85.00;;;;;;6092693;23;20025;-66
2021/07/03 05:15:52;;;;;;;2.33;1.30;;;15.90;85.10;;;;;;6090980;23;20450;-65
2021/07/03 05:18:19;;;;;;;1.40;1.13;;;15.90;85.20;;;;;;6092517;23;20065;-66
2021/07/03 05:20:46;;;;;;;1.83;1.00;;;15.90;85.20;;;;;;6091491;23;20077;-65
2021/07/03 05:23:12;;;;;;;6.68;2.08;;;15.90;85.20;;;;;;6092508;23;20007;-66
2021/07/03 05:25:44;;;;;;;2.25;0.80;;;15.90;85.30;;;;;;6091609;23;20005;-66
2021/07/03 05:28:12;;;;;;;2.42;0.80;;;15.90;85.30;;;;;;6091853;23;20040;-65
2021/07/03 05:30:41;;;;;;;3.20;0.90;;;15.90;85.50;;;;;;6092740;23;20013;-66
2021/07/03 05:33:08;;;;;;;1.23;0.85;;;15.90;85.50;;;;;;6091107;23;20013;-66
2021/07/03 05:35:34;;;;;;;1.33;0.90;;;15.90;85.70;;;;;;6092266;23;20018;-65
2021/07/03 05:38:01;;;;;;;1.65;1.45;;;15.90;85.80;;;;;;6091118;23;20017;-66
2021/07/03 05:40:28;;;;;;;1.13;0.70;;;15.90;85.90;;;;;;6092338;23;20029;-67
2021/07/03 05:42:54;;;;;;;0.95;0.90;;;15.80;86.00;;;;;;6091573;23;20013;-65
2021/07/03 05:45:21;;;;;;;2.53;0.80;;;15.80;86.00;;;;;;6092114;23;19998;-66
2021/07/03 05:47:51;;;;;;;1.77;1.27;;;15.90;86.10;;;;;;6092614;23;20022;-66
2021/07/03 05:50:19;;;;;;;1.85;0.80;;;15.80;86.10;;;;;;6091842;23;20026;-65
2021/07/03 05:52:45;;;;;;;1.48;0.98;;;15.90;86.20;;;;;;6093931;23;20010;-65
2021/07/03 05:55:12;;;;;;;2.00;0.80;;;15.90;86.20;;;;;;6092532;23;20069;-66
2021/07/03 05:57:39;;;;;;;1.00;0.60;;;15.90;86.30;;;;;;6093520;23;20371;-65
2021/07/03 06:00:08;;;;;;;1.75;1.17;;;15.80;86.30;;;;;;6092915;23;20013;-66
2021/07/03 06:02:35;;;;;;;5.55;0.98;;;15.80;86.40;;;;;;6093243;23;20006;-65
2021/07/03 06:05:02;;;;;;;1.80;0.80;;;15.80;86.40;;;;;;6093591;23;20010;-65
2021/07/03 06:07:29;;;;;;;1.75;0.73;;;15.90;86.50;;;;;;6092470;23;20042;-66
2021/07/03 06:09:55;;;;;;;1.17;0.50;;;15.90;86.50;;;;;;6093573;23;20098;-65
2021/07/03 06:12:22;;;;;;;4.25;1.05;;;15.90;86.50;;;;;;6092373;23;19999;-65
2021/07/03 06:14:48;;;;;;;3.50;0.90;;;15.90;86.60;;;;;;6093615;23;20053;-64
2021/07/03 06:17:15;;;;;;;1.25;0.60;;;15.90;86.60;;;;;;6092456;23;20003;-64
2021/07/03 06:19:43;;;;;;;2.60;0.60;;;15.80;86.60;;;;;;6093409;23;20029;-65
2021/07/03 06:22:12;;;;;;;4.35;1.15;;;15.90;86.80;;;;;;6093609;23;20002;-64
2021/07/03 06:24:43;;;;;;;4.38;1.65;;;15.90;86.80;;;;;;6092496;23;20030;-64
2021/07/03 06:27:11;;;;;;;1.73;0.50;;;15.90;86.90;;;;;;6093643;23;20657;-64
2021/07/03 06:29:37;;;;;;;1.17;0.55;;;15.90;87.20;;;;;;6092156;23;20002;-65
2021/07/03 06:32:05;;;;;;;1.80;0.82;;;15.90;87.60;;;;;;6091901;23;20403;-66
2021/07/03 06:34:32;;;;;;;9.80;5.88;;;15.90;88.00;;;;;;6092196;23;20082;-65
2021/07/03 06:36:59;;;;;;;12.10;7.20;;;15.90;88.80;;;;;;6093777;23;20427;-68
2021/07/03 06:39:25;;;;;;;14.07;4.85;;;15.90;88.90;;;;;;6094546;23;20074;-69
2021/07/03 06:41:52;;;;;;;8.80;4.07;;;15.90;89.20;;;;;;6094634;23;20072;-65
2021/07/03 06:44:18;;;;;;;22.45;7.43;;;15.90;89.40;;;;;;6095569;23;20431;-66
2021/07/03 06:46:48;;;;;;;18.60;4.82;;;15.90;90.10;;;;;;6094419;23;20002;-66
2021/07/03 06:49:15;;;;;;;12.13;4.18;;;15.90;89.90;;;;;;6095424;23;20038;-66
2021/07/03 06:51:43;;;;;;;40.80;23.08;;;15.90;90.00;;;;;;6094240;23;20424;-68
2021/07/03 06:54:10;;;;;;;43.88;24.05;;;15.90;90.10;;;;;;6095258;23;20409;-68
2021/07/03 06:56:36;;;;;;;23.92;13.63;;;15.90;90.20;;;;;;6094672;23;20100;-67
2021/07/03 06:59:03;;;;;;;21.70;10.27;;;15.90;90.20;;;;;;6094761;23;20326;-64
2021/07/03 07:01:30;;;;;;;18.67;8.85;;;15.90;90.30;;;;;;6095758;23;20323;-66
2021/07/03 07:03:56;;;;;;;18.80;12.13;;;15.90;90.30;;;;;;6093745;23;20029;-65
2021/07/03 07:06:23;;;;;;;17.10;8.57;;;15.90;90.30;;;;;;6095102;23;20077;-64
2021/07/03 07:08:49;;;;;;;13.80;6.70;;;15.90;90.20;;;;;;6093593;23;20308;-66
2021/07/03 07:11:16;;;;;;;12.73;5.93;;;15.90;90.20;;;;;;6095162;23;20332;-66
2021/07/03 07:13:42;;;;;;;11.38;4.78;;;15.90;90.20;;;;;;6094781;23;20008;-66
2021/07/03 07:16:08;;;;;;;7.95;3.58;;;15.90;90.20;;;;;;6094924;23;20085;-66
2021/07/03 07:18:35;;;;;;;7.05;2.83;;;15.90;90.20;;;;;;6094731;23;19999;-66
2021/07/03 07:21:01;;;;;;;8.95;2.92;;;15.90;90.20;;;;;;6093793;23;20006;-66
2021/07/03 07:23:28;;;;;;;9.68;2.80;;;15.90;90.20;;;;;;6095398;23;20037;-67
2021/07/03 07:25:54;;;;;;;8.25;3.17;;;16.00;90.20;;;;;;6093652;23;20006;-66
2021/07/03 07:28:21;;;;;;;9.38;3.35;;;15.90;90.20;;;;;;6095198;23;20009;-67
2021/07/03 07:30:47;;;;;;;7.38;2.28;;;16.00;90.20;;;;;;6093400;23;20033;-65
2021/07/03 07:33:14;;;;;;;8.55;2.28;;;15.90;90.20;;;;;;6095082;23;20057;-66
2021/07/03 07:35:41;;;;;;;8.05;3.88;;;15.90;90.20;;;;;;6094345;23;20021;-65
2021/07/03 07:38:07;;;;;;;6.20;3.03;;;15.90;90.20;;;;;;6094106;23;20029;-65
2021/07/03 07:40:34;;;;;;;9.73;3.25;;;16.00;90.20;;;;;;6095095;23;20006;-65
2021/07/03 07:43:00;;;;;;;4.90;2.38;;;15.90;90.10;;;;;;6093789;23;20371;-65
2021/07/03 07:45:27;;;;;;;7.82;4.13;;;15.90;90.10;;;;;;6094682;23;20002;-64
2021/07/03 07:47:53;;;;;;;11.48;4.47;;;15.90;90.10;;;;;;6094347;23;20003;-64
2021/07/03 07:50:19;;;;;;;11.82;4.30;;;16.00;90.10;;;;;;6092886;23;20006;-69
2021/07/03 07:52:46;;;;;;;8.38;3.67;;;16.00;90.00;;;;;;6094000;23;20339;-65
2021/07/03 07:55:13;;;;;;;10.73;5.55;;;16.00;90.00;;;;;;6094302;23;20331;-66
2021/07/03 07:57:39;;;;;;;8.52;4.47;;;16.00;90.00;;;;;;6094631;23;20030;-66
2021/07/03 08:00:07;;;;;;;8.40;3.90;;;16.00;90.00;;;;;;6093467;23;20478;-70
2021/07/03 08:02:33;;;;;;;7.70;4.22;;;16.00;90.00;;;;;;6094753;23;20003;-66
2021/07/03 08:05:00;;;;;;;5.93;2.80;;;16.00;90.00;;;;;;6094096;23;19998;-66
2021/07/03 08:07:26;;;;;;;6.68;4.20;;;16.00;90.00;;;;;;6094481;23;20335;-64
2021/07/03 08:09:53;;;;;;;8.15;3.33;;;16.00;90.00;;;;;;6093774;23;20444;-66
2021/07/03 08:12:19;;;;;;;7.85;3.58;;;16.00;90.00;;;;;;6094452;23;20007;-66
2021/07/03 08:14:45;;;;;;;6.95;2.65;;;16.00;90.00;;;;;;6094186;23;20601;-66
2021/07/03 08:17:12;;;;;;;6.75;3.10;;;16.00;90.00;;;;;;6093515;23;20410;-66
2021/07/03 08:19:38;;;;;;;8.55;2.97;;;16.00;90.00;;;;;;6094624;23;20037;-66
2021/07/03 08:22:05;;;;;;;6.10;2.67;;;16.10;90.10;;;;;;6093621;23;20006;-66
2021/07/03 08:24:31;;;;;;;6.63;2.80;;;16.10;90.10;;;;;;6094458;23;19995;-66
2021/07/03 08:26:59;;;;;;;8.68;2.70;;;16.10;90.10;;;;;;6093168;23;20002;-64
2021/07/03 08:29:25;;;;;;;6.15;2.67;;;16.10;90.10;;;;;;6094469;23;20413;-64
2021/07/03 08:31:52;;;;;;;8.27;3.45;;;16.10;90.10;;;;;;6094691;23;20041;-64
2021/07/03 08:34:18;;;;;;;10.45;3.25;;;16.10;90.20;;;;;;6093438;23;20022;-65
2021/07/03 08:36:45;;;;;;;13.73;4.10;;;16.10;90.20;;;;;;6094769;23;20015;-65
2021/07/03 08:39:11;;;;;;;7.22;3.28;;;16.10;90.20;;;;;;6093186;23;20009;-65
2021/07/03 08:41:39;;;;;;;9.85;3.63;;;16.10;90.30;;;;;;6094560;23;20006;-65
2021/07/03 08:44:08;;;;;;;12.70;4.70;;;16.10;90.30;;;;;;6093113;23;20327;-64
2021/07/03 08:46:36;;;;;;;8.88;3.50;;;16.10;90.40;;;;;;6094255;23;20002;-65
2021/07/03 08:49:03;;;;;;;12.05;4.47;;;16.10;90.40;;;;;;6093564;23;20014;-64
2021/07/03 08:51:30;;;;;;;15.88;4.43;;;16.10;90.40;;;;;;6093999;23;20682;-66
2021/07/03 08:53:56;;;;;;;11.70;4.03;;;16.10;90.40;;;;;;6094266;23;20061;-65
2021/07/03 08:56:23;;;;;;;13.02;4.18;;;16.10;90.50;;;;;;6092833;23;20010;-65
2021/07/03 08:58:49;;;;;;;11.60;3.17;;;16.20;90.50;;;;;;6094182;23;20009;-66
2021/07/03 09:01:16;;;;;;;12.02;4.32;;;16.20;90.60;;;;;;6092195;23;20006;-66
2021/07/03 09:03:54;;;;;;;12.20;5.22;;;16.20;90.60;;;;;;6093889;23;20027;-66
2021/07/03 09:06:31;;;;;;;12.60;3.92;;;16.20;90.60;;;;;;6093385;23;19998;-66
2021/07/03 09:08:58;;;;;;;10.05;3.60;;;16.20;90.60;;;;;;6093265;23;20108;-65
2021/07/03 09:11:24;;;;;;;13.93;5.07;;;16.20;90.70;;;;;;6094156;23;20061;-66
2021/07/03 09:14:05;;;;;;;13.02;3.35;;;16.20;90.70;;;;;;6093464;23;20090;-65
2021/07/03 09:16:33;;;;;;;10.45;3.83;;;16.20;90.80;;;;;;6093836;23;20010;-65
2021/07/03 09:19:01;;;;;;;15.23;4.25;;;16.20;90.80;;;;;;6092712;23;20002;-66
2021/07/03 09:21:29;;;;;;;13.02;3.65;;;16.20;90.80;;;;;;6093905;23;20066;-65
2021/07/03 09:23:57;;;;;;;11.00;2.50;;;16.20;90.80;;;;;;6093774;23;20002;-65
2021/07/03 09:26:23;;;;;;;10.45;2.78;;;16.20;90.80;;;;;;6093536;23;20002;-65
2021/07/03 09:28:50;;;;;;;14.77;3.50;;;16.20;90.70;;;;;;6093852;23;20006;-65
2021/07/03 09:31:18;;;;;;;11.95;3.00;;;16.20;90.70;;;;;;6092641;23;20430;-65
2021/07/03 09:33:51;;;;;;;9.95;2.33;;;16.20;90.70;;;;;;6093946;23;20027;-65
2021/07/03 09:36:30;;;;;;;11.20;3.28;;;16.20;90.60;;;;;;6092755;23;20056;-65
2021/07/03 09:38:59;;;;;;;11.25;3.42;;;16.20;90.60;;;;;;6093574;23;20029;-66
2021/07/03 09:41:37;;;;;;;7.38;2.88;;;16.20;90.60;;;;;;6093949;23;20002;-65
2021/07/03 09:44:10;;;;;;;10.75;2.08;;;16.20;90.60;;;;;;6092618;23;20001;-65
2021/07/03 09:46:40;;;;;;;10.27;3.33;;;16.20;90.60;;;;;;6093811;23;20449;-67
2021/07/03 09:49:22;;;;;;;10.77;2.78;;;16.30;90.60;;;;;;6092823;23;20006;-67
2021/07/03 09:51:54;;;;;;;7.15;3.38;;;16.30;90.60;;;;;;6093773;23;20010;-66
2021/07/03 09:54:22;;;;;;;11.73;2.72;;;16.30;90.80;;;;;;6093674;23;20029;-66
2021/07/03 09:56:59;;;;;;;8.80;3.03;;;16.30;90.50;;;;;;6092738;23;20490;-66
2021/07/03 09:59:36;;;;;;;10.68;3.05;;;16.30;90.50;;;;;;6093645;23;20026;-66
2021/07/03 10:02:03;;;;;;;6.85;3.45;;;16.40;90.40;;;;;;6092295;23;20442;-66
2021/07/03 10:04:30;;;;;;;10.50;2.63;;;16.40;90.40;;;;;;6093587;23;20003;-65
2021/07/03 10:07:05;;;;;;;12.95;2.65;;;16.40;90.40;;;;;;6093019;23;20419;-66
2021/07/03 10:09:55;;;;;;;10.50;2.92;;;16.40;90.40;;;;;;6092846;23;20018;-66
2021/07/03 10:12:31;;;;;;;10.23;3.38;;;16.40;90.30;;;;;;6094496;23;20002;-66
2021/07/03 10:14:58;;;;;;;11.35;2.90;;;16.40;90.30;;;;;;6094372;23;20041;-66
2021/07/03 10:17:26;;;;;;;13.90;3.47;;;16.40;90.30;;;;;;6095587;23;20327;-66
2021/07/03 10:19:53;;;;;;;13.40;3.00;;;16.40;90.20;;;;;;6094931;23;20033;-66
2021/07/03 10:22:21;;;;;;;13.80;3.75;;;16.50;90.20;;;;;;6095395;23;20065;-66
2021/07/03 10:24:56;;;;;;;10.27;3.65;;;16.50;90.20;;;;;;6095586;23;20010;-66
2021/07/03 10:27:29;;;;;;;17.42;3.42;;;16.50;90.10;;;;;;6094482;23;20420;-66
2021/07/03 10:30:00;;;;;;;12.27;2.78;;;16.50;90.10;;;;;;6096100;23;20002;-66
2021/07/03 10:32:31;;;;;;;19.92;4.32;;;16.50;90.00;;;;;;6094574;23;20434;-66
2021/07/03 10:35:13;;;;;;;13.43;3.97;;;16.60;90.00;;;;;;6096074;23;20018;-66
2021/07/03 10:37:41;;;;;;;15.52;3.35;;;16.60;89.90;;;;;;6095264;23;20053;-66
2021/07/03 10:40:18;;;;;;;13.48;3.38;;;16.60;89.80;;;;;;6094519;23;20433;-67
2021/07/03 10:42:45;;;;;;;9.73;3.75;;;16.70;89.70;;;;;;6095383;23;20006;-67
2021/07/03 10:45:18;;;;;;;14.73;3.40;;;16.70;89.60;;;;;;6094310;23;20454;-67
2021/07/03 10:47:45;;;;;;;11.15;2.97;;;16.70;89.40;;;;;;6095459;23;20065;-67
2021/07/03 10:50:27;;;;;;;13.02;3.15;;;16.70;89.30;;;;;;6094868;23;20081;-67
2021/07/03 10:52:54;;;;;;;14.77;4.53;;;16.70;89.30;;;;;;6094538;23;20007;-66
2021/07/03 10:55:37;;;;;;;17.45;5.13;;;16.70;89.30;;;;;;6095411;23;20432;-67
2021/07/03 10:58:19;;;;;;;16.75;4.68;;;16.70;89.30;;;;;;6094000;23;20003;-67
2021/07/03 11:00:50;;;;;;;13.45;4.35;;;16.80;89.30;;;;;;6095280;23;20010;-66
2021/07/03 11:03:21;;;;;;;19.00;4.18;;;16.70;89.20;;;;;;6094511;23;20026;-67
2021/07/03 11:05:47;;;;;;;15.32;7.68;;;16.70;89.10;;;;;;6094512;23;20497;-67
2021/07/03 11:08:15;;;;;;;12.25;5.18;;;16.80;89.20;;;;;;6095448;23;20056;-67
2021/07/03 11:10:42;;;;;;;14.95;3.85;;;16.80;89.10;;;;;;6093933;23;20014;-67
2021/07/03 11:13:28;;;;;;;16.40;6.97;;;16.80;89.10;;;;;;6095170;23;20252;-67
2021/07/03 11:15:55;;;;;;;14.38;4.28;;;16.80;89.10;;;;;;6094125;23;20435;-67
2021/07/03 11:18:21;;;;;;;18.35;3.88;;;16.80;89.70;;;;;;6095110;23;20033;-67
2021/07/03 11:20:48;;;;;;;14.25;5.05;;;16.80;89.00;;;;;;6092876;23;20446;-67
2021/07/03 11:23:20;;;;;;;16.45;4.68;;;16.80;89.00;;;;;;6094263;23;20002;-67
2021/07/03 11:25:47;;;;;;;19.63;5.05;;;16.80;89.00;;;;;;6095020;23;20315;-67
2021/07/03 11:28:24;;;;;;;16.27;4.63;;;16.80;89.00;;;;;;6094057;23;20082;-66
2021/07/03 11:30:59;;;;;;;14.43;5.60;;;16.90;89.00;;;;;;6095081;23;20003;-67
2021/07/03 11:33:30;;;;;;;17.27;5.43;;;16.90;89.00;;;;;;6094065;23;20013;-67
2021/07/03 11:35:57;;;;;;;21.50;6.18;;;16.90;89.10;;;;;;6094382;23;20015;-67
2021/07/03 11:38:25;;;;;;;17.98;4.93;;;16.90;89.00;;;;;;6094918;23;20046;-67
2021/07/03 11:40:58;;;;;;;15.85;5.85;;;17.00;89.00;;;;;;6094068;23;20002;-67
2021/07/03 11:43:25;;;;;;;21.83;6.88;;;17.00;88.90;;;;;;6094844;23;20049;-67
2021/07/03 11:45:53;;;;;;;18.25;5.80;;;17.00;88.80;;;;;;6093628;23;20050;-67
2021/07/03 11:48:24;;;;;;;17.58;5.05;;;17.00;88.70;;;;;;6094825;23;20008;-67
2021/07/03 11:50:59;;;;;;;16.40;4.72;;;17.00;88.60;;;;;;6094182;23;20002;-67
2021/07/03 11:53:37;;;;;;;16.10;4.85;;;17.00;88.50;;;;;;6094167;23;19999;-67
2021/07/03 11:56:04;;;;;;;22.58;6.55;;;17.00;88.40;;;;;;6094972;23;20025;-67
2021/07/03 11:58:35;;;;;;;18.17;6.35;;;17.10;88.30;;;;;;6093392;23;19999;-67
2021/07/03 12:01:07;;;;;;;25.52;6.38;;;17.10;88.10;;;;;;6094780;23;20016;-67
2021/07/03 12:03:36;;;;;;;20.20;5.55;;;17.10;87.80;;;;;;6093417;23;20002;-67
2021/07/03 12:06:05;;;;;;;17.33;5.40;;;17.10;87.50;;;;;;6094410;23;20009;-67
2021/07/03 12:08:47;;;;;;;25.83;7.00;;;17.10;87.00;;;;;;6094709;23;20006;-67
2021/07/03 12:11:16;;;;;;;21.48;5.68;;;17.10;86.70;;;;;;6093592;23;20018;-66
2021/07/03 12:13:50;;;;;;;26.80;7.78;;;17.10;86.30;;;;;;6094382;23;20010;-67
2021/07/03 12:16:20;;;;;;;21.52;7.13;;;17.10;86.70;;;;;;6092776;23;20006;-66
2021/07/03 12:18:57;;;;;;;33.15;8.68;;;17.10;86.00;;;;;;6094298;23;20002;-68
2021/07/03 12:21:24;;;;;;;21.98;6.18;;;17.10;85.80;;;;;;6094007;23;20054;-72
2021/07/03 12:23:53;;;;;;;62.33;20.70;;;17.10;85.70;;;;;;6093555;23;20524;-67
2021/07/03 12:26:27;;;;;;;45.60;17.55;;;17.10;85.60;;;;;;6094948;23;20033;-66
2021/07/03 12:28:58;;;;;;;45.50;15.77;;;17.10;85.40;;;;;;6093180;23;20026;-68
2021/07/03 12:31:33;;;;;;;35.42;13.05;;;17.20;85.20;;;;;;6094327;23;20006;-67
2021/07/03 12:34:12;;;;;;;46.38;13.15;;;17.20;84.90;;;;;;6093467;23;20006;-66
2021/07/03 12:36:46;;;;;;;38.58;13.10;;;17.10;84.70;;;;;;6093005;23;20073;-72
2021/07/03 12:39:20;;;;;;;30.38;10.38;;;17.20;84.60;;;;;;6094707;23;20009;-71
2021/07/03 12:42:03;;;;;;;32.17;9.43;;;17.20;84.70;;;;;;6092924;23;19998;-70
2021/07/03 12:44:37;;;;;;;29.60;8.90;;;17.20;84.90;;;;;;6094355;23;19998;-72
2021/07/03 12:47:07;;;;;;;27.27;7.78;;;17.20;84.90;;;;;;6093719;23;20006;-68